Time;durP1;ratioP1;P1;durP2;ratioP2;P2;SDS_P1;SDS_P2;PMS_P1;PMS_P2;Temp;Humidity;BMP_temperature;BMP_pressure;BME280_temperature;BME280_humidity;BME280_pressure;Samples;Min_cycle;Max_cycle;Signal;HPM_P1;HPM_P2
2021/03/04 00:02:01;;;;;;;17.77;9.65;;;;;;;9.18;51.53;99602.94;5114037;28;20052;-69
2021/03/04 00:04:28;;;;;;;13.63;9.30;;;;;;;9.18;51.68;99601.16;5113736;28;20074;-69
2021/03/04 00:06:55;;;;;;;14.75;8.98;;;;;;;9.17;51.69;99591.56;5113454;28;20043;-69
2021/03/04 00:09:22;;;;;;;18.30;9.40;;;;;;;9.15;51.95;99593.56;5113063;28;20050;-69
2021/03/04 00:11:49;;;;;;;14.10;9.07;;;;;;;9.15;52.09;99590.91;5113264;28;20054;-70
2021/03/04 00:14:15;;;;;;;15.15;9.13;;;;;;;9.12;52.03;99585.97;5113099;28;20046;-69
2021/03/04 00:16:42;;;;;;;14.18;8.40;;;;;;;9.01;52.49;99583.63;5111893;28;20035;-69
2021/03/04 00:19:09;;;;;;;12.68;8.02;;;;;;;8.94;52.95;99582.66;5112985;28;20528;-69
2021/03/04 00:21:36;;;;;;;14.38;8.40;;;;;;;8.76;53.48;99580.16;5111828;28;20044;-69
2021/03/04 00:24:04;;;;;;;17.05;9.02;;;;;;;8.74;53.32;99583.94;5112969;28;20050;-69
2021/03/04 00:26:31;;;;;;;12.85;8.90;;;;;;;8.72;53.49;99578.81;5112781;28;20405;-69
2021/03/04 00:28:58;;;;;;;14.18;8.90;;;;;;;8.72;53.55;99581.44;5112858;28;20097;-70
2021/03/04 00:31:24;;;;;;;16.20;9.25;;;;;;;8.60;53.81;99580.94;5111746;28;20044;-69
2021/03/04 00:33:52;;;;;;;15.07;9.02;;;;;;;8.55;54.21;99579.78;5111596;28;20573;-69
2021/03/04 00:36:19;;;;;;;16.67;9.73;;;;;;;8.44;54.04;99581.69;5112853;28;20490;-70
2021/03/04 00:38:45;;;;;;;16.77;9.02;;;;;;;8.35;54.22;99576.53;5112998;27;20036;-70
2021/03/04 00:41:13;;;;;;;18.52;9.32;;;;;;;8.39;54.16;99577.91;5112816;28;20405;-69
2021/03/04 00:43:39;;;;;;;14.25;9.88;;;;;;;8.48;54.17;99571.66;5111441;28;20058;-69
2021/03/04 00:46:06;;;;;;;14.82;10.05;;;;;;;8.52;54.01;99566.91;5112534;28;20046;-70
2021/03/04 00:48:33;;;;;;;14.73;9.48;;;;;;;8.43;54.32;99568.69;5111070;28;20075;-69
2021/03/04 00:51:00;;;;;;;12.63;8.80;;;;;;;8.38;54.60;99579.72;5112629;28;20044;-70
2021/03/04 00:53:26;;;;;;;15.73;9.30;;;;;;;8.47;54.71;99574.47;5112641;28;20059;-69
2021/03/04 00:55:53;;;;;;;16.20;8.95;;;;;;;8.55;54.28;99570.06;5111209;28;20055;-69
2021/03/04 00:58:20;;;;;;;13.05;9.40;;;;;;;8.59;53.99;99565.28;5112318;28;20048;-69
2021/03/04 01:00:47;;;;;;;13.63;8.98;;;;;;;8.57;53.82;99560.19;5112678;28;20460;-69
2021/03/04 01:03:14;;;;;;;16.30;8.77;;;;;;;8.55;54.07;99554.25;5112672;28;20049;-69
2021/03/04 01:05:41;;;;;;;16.05;9.70;;;;;;;8.41;54.23;99558.31;5112345;28;20439;-69
2021/03/04 01:08:08;;;;;;;13.57;9.00;;;;;;;8.26;54.73;99549.34;5112400;28;20089;-69
2021/03/04 01:10:37;;;;;;;12.93;9.50;;;;;;;8.26;55.26;99546.72;5112639;28;20047;-69
2021/03/04 01:13:04;;;;;;;14.77;9.23;;;;;;;8.27;55.14;99547.53;5112410;28;20047;-70
2021/03/04 01:15:32;;;;;;;15.00;9.02;;;;;;;8.30;55.02;99552.50;5112381;28;20401;-69
2021/03/04 01:18:00;;;;;;;14.57;9.25;;;;;;;8.33;54.74;99552.19;5114999;28;20050;-70
2021/03/04 01:20:27;;;;;;;15.43;8.93;;;;;;;8.36;54.56;99543.94;5116586;28;20458;-70
2021/03/04 01:22:54;;;;;;;13.07;8.75;;;;;;;8.38;54.68;99542.00;5116674;27;20589;-69
2021/03/04 01:25:21;;;;;;;17.20;9.90;;;;;;;8.36;54.52;99536.84;5116460;28;20044;-69
2021/03/04 01:27:49;;;;;;;13.13;8.68;;;;;;;8.23;54.80;99528.59;5116220;27;20391;-68
2021/03/04 01:30:18;;;;;;;15.63;8.93;;;;;;;8.25;54.73;99528.44;5116373;28;20040;-70
2021/03/04 01:32:46;;;;;;;14.50;8.35;;;;;;;8.21;54.82;99532.38;5116494;28;20058;-68
2021/03/04 01:35:13;;;;;;;14.65;8.75;;;;;;;8.21;54.91;99522.66;5116079;28;20087;-71
2021/03/04 01:37:40;;;;;;;17.50;9.10;;;;;;;8.14;54.82;99522.47;5116053;28;20053;-70
2021/03/04 01:40:10;;;;;;;17.25;9.40;;;;;;;8.03;55.44;99528.00;5116220;28;20122;-68
2021/03/04 01:42:36;;;;;;;13.82;9.27;;;;;;;7.91;55.49;99522.19;5116107;28;20051;-68
2021/03/04 01:45:04;;;;;;;19.27;9.73;;;;;;;7.69;56.09;99522.75;5115973;28;20050;-68
2021/03/04 01:47:31;;;;;;;17.30;9.15;;;;;;;7.65;56.41;99518.78;5115982;28;20044;-68
2021/03/04 01:50:00;;;;;;;12.77;8.65;;;;;;;7.51;56.74;99512.31;5114590;28;20047;-68
2021/03/04 01:52:27;;;;;;;15.50;8.55;;;;;;;7.45;56.97;99510.28;5116143;28;20043;-68
2021/03/04 01:54:55;;;;;;;12.95;8.38;;;;;;;7.47;57.14;99510.13;5114483;28;20051;-68
2021/03/04 01:57:21;;;;;;;16.75;9.57;;;;;;;7.47;57.43;99503.09;5114484;28;20059;-68
2021/03/04 01:59:49;;;;;;;12.93;9.20;;;;;;;7.53;57.09;99499.00;5115666;28;20375;-68
2021/03/04 02:02:53;;;;;;;14.50;9.15;;;;;;;7.43;57.57;99491.22;5115889;28;20052;-68
2021/03/04 02:05:22;;;;;;;16.17;8.70;;;;;;;7.39;57.21;99488.06;5115492;28;20516;-68
2021/03/04 02:08:01;;;;;;;12.60;9.32;;;;;;;7.31;57.80;99482.75;5115500;28;20036;-68
2021/03/04 02:10:35;;;;;;;17.80;9.60;;;;;;;7.19;57.93;99476.94;5115649;28;20375;-70
2021/03/04 02:13:10;;;;;;;15.45;9.63;;;;;;;7.11;58.43;99481.31;5115690;27;20047;-70
2021/03/04 02:15:41;;;;;;;16.67;8.77;;;;;;;7.09;58.43;99478.81;5115516;28;20067;-70
2021/03/04 02:18:13;;;;;;;12.77;8.88;;;;;;;7.16;58.72;99477.22;5115387;28;20069;-70
2021/03/04 02:20:54;;;;;;;15.60;9.25;;;;;;;7.29;58.71;99470.72;5115856;28;20408;-70
2021/03/04 02:23:57;;;;;;;13.00;8.25;;;;;;;7.43;58.46;99475.44;5115598;28;20046;-68
2021/03/04 02:26:36;;;;;;;24.85;9.90;;;;;;;7.52;58.10;99463.16;5088963;28;20055;-68
2021/03/04 02:29:06;;;;;;;11.43;8.63;;;;;;;7.49;57.79;99464.28;5114725;28;20040;-69
2021/03/04 02:31:36;;;;;;;16.48;9.60;;;;;;;7.35;57.85;99452.53;5115366;28;20048;-68
2021/03/04 02:34:05;;;;;;;19.77;9.48;;;;;;;7.23;58.05;99461.66;5115167;28;20100;-68
2021/03/04 02:36:35;;;;;;;15.10;9.45;;;;;;;7.17;58.62;99465.72;5115001;28;20047;-68
2021/03/04 02:39:05;;;;;;;13.10;8.32;;;;;;;7.23;58.68;99455.59;5115013;28;20494;-68
2021/03/04 02:41:34;;;;;;;16.42;9.35;;;;;;;7.33;58.25;99457.13;5115177;28;20039;-68
2021/03/04 02:44:03;;;;;;;13.40;9.02;;;;;;;7.35;57.75;99443.81;5114929;28;20046;-68
2021/03/04 02:46:32;;;;;;;13.32;9.05;;;;;;;7.13;58.18;99445.16;5114788;28;20039;-68
2021/03/04 02:48:59;;;;;;;12.65;8.75;;;;;;;7.00;58.74;99442.13;5114801;28;20126;-68
2021/03/04 02:51:28;;;;;;;14.27;9.45;;;;;;;7.03;59.06;99445.28;5113657;28;20055;-68
2021/03/04 02:53:56;;;;;;;16.25;9.82;;;;;;;6.98;58.87;99447.53;5113499;28;20055;-68
2021/03/04 02:56:24;;;;;;;14.75;8.00;;;;;;;6.89;59.30;99446.63;5114583;28;20060;-68
2021/03/04 02:58:52;;;;;;;17.08;9.40;;;;;;;7.05;59.34;99442.47;5113227;28;20048;-68
2021/03/04 03:01:20;;;;;;;22.75;8.52;;;;;;;7.17;59.09;99430.72;5114596;28;20663;-68
2021/03/04 03:03:49;;;;;;;14.75;8.95;;;;;;;7.24;58.80;99437.03;5114666;27;20054;-68
2021/03/04 03:06:17;;;;;;;18.15;9.93;;;;;;;7.18;58.58;99432.38;5113109;28;20401;-68
2021/03/04 03:08:45;;;;;;;16.90;9.43;;;;;;;7.04;58.84;99427.69;5113024;28;20050;-68
2021/03/04 03:11:14;;;;;;;16.13;8.95;;;;;;;6.95;59.78;99429.44;5115199;28;20516;-69
2021/03/04 03:13:41;;;;;;;17.48;8.93;;;;;;;7.07;59.47;99425.59;5114752;28;20062;-70
2021/03/04 03:16:08;;;;;;;13.32;8.70;;;;;;;7.08;58.86;99415.88;5115261;28;20409;-68
2021/03/04 03:18:35;;;;;;;15.55;9.85;;;;;;;6.92;58.83;99422.69;5112737;28;20497;-68
2021/03/04 03:21:03;;;;;;;14.45;8.93;;;;;;;6.89;59.66;99425.59;5114395;27;20040;-68
2021/03/04 03:23:29;;;;;;;12.68;8.88;;;;;;;7.03;59.44;99426.06;5114281;27;20554;-68
2021/03/04 03:25:56;;;;;;;13.55;8.95;;;;;;;7.12;59.07;99420.69;5113841;28;20040;-68
2021/03/04 03:28:23;;;;;;;14.82;9.93;;;;;;;7.11;58.94;99426.09;5113991;28;20036;-70
2021/03/04 03:30:50;;;;;;;13.60;9.05;;;;;;;7.02;59.10;99419.97;5114075;28;20054;-70
2021/03/04 03:33:19;;;;;;;13.38;9.32;;;;;;;6.88;59.23;99421.34;5114129;28;20035;-70
2021/03/04 03:35:46;;;;;;;15.13;8.98;;;;;;;6.86;59.65;99425.94;5113961;28;20047;-71
2021/03/04 03:38:16;;;;;;;14.77;8.93;;;;;;;6.99;59.61;99416.81;5123574;28;20081;-70
2021/03/04 03:40:47;;;;;;;15.80;9.10;;;;;;;7.10;59.32;99412.13;5138818;28;20059;-68
2021/03/04 03:43:15;;;;;;;15.52;8.93;;;;;;;7.17;58.96;99402.63;5139999;28;20035;-67
2021/03/04 03:45:44;;;;;;;16.60;9.48;;;;;;;7.25;58.85;99403.66;5120901;28;20043;-68
2021/03/04 03:48:13;;;;;;;14.00;9.50;;;;;;;7.20;58.77;99398.88;5113780;28;20043;-68
2021/03/04 03:50:42;;;;;;;14.95;9.88;;;;;;;7.11;58.73;99397.19;5113128;28;20051;-69
2021/03/04 03:53:12;;;;;;;15.32;9.70;;;;;;;7.00;59.03;99387.75;5114127;28;20049;-68
2021/03/04 03:55:40;;;;;;;15.50;9.98;;;;;;;6.98;59.53;99392.34;5113717;28;20043;-68
2021/03/04 03:58:09;;;;;;;18.50;9.95;;;;;;;6.96;59.37;99391.66;5113482;28;20126;-68
2021/03/04 04:00:36;;;;;;;18.33;9.23;;;;;;;6.96;59.40;99378.50;5113689;28;20035;-68
2021/03/04 04:03:04;;;;;;;14.68;9.93;;;;;;;6.90;59.70;99379.16;5113691;28;20048;-68
2021/03/04 04:05:31;;;;;;;16.23;9.00;;;;;;;6.82;60.15;99389.63;5113307;28;20039;-68
2021/03/04 04:08:00;;;;;;;15.25;9.40;;;;;;;6.74;60.24;99390.38;5113312;27;20402;-68
2021/03/04 04:10:30;;;;;;;13.10;9.45;;;;;;;6.85;60.29;99391.91;5113421;28;20046;-68
2021/03/04 04:12:58;;;;;;;14.10;9.27;;;;;;;6.87;60.33;99384.72;5113356;28;20050;-68
2021/03/04 04:15:26;;;;;;;14.93;9.82;;;;;;;7.04;60.12;99396.16;5113236;28;20508;-69
2021/03/04 04:17:56;;;;;;;13.68;8.95;;;;;;;7.14;59.56;99396.84;5112297;28;20405;-68
2021/03/04 04:20:43;;;;;;;14.82;9.77;;;;;;;7.21;59.00;99397.88;5113291;28;20695;-69
2021/03/04 04:23:10;;;;;;;19.02;11.10;;;;;;;7.22;58.60;99391.63;5113149;28;20048;-69
2021/03/04 04:25:47;;;;;;;20.17;10.65;;;;;;;7.31;58.10;99382.00;5113365;28;20062;-69
2021/03/04 04:28:16;;;;;;;18.35;10.63;;;;;;;7.40;57.94;99388.94;5113111;28;20027;-69
2021/03/04 04:30:42;;;;;;;20.77;10.18;;;;;;;7.43;57.62;99386.81;5114015;28;20051;-69
2021/03/04 04:33:09;;;;;;;17.65;10.40;;;;;;;7.47;57.63;99368.91;5113793;28;20470;-69
2021/03/04 04:35:36;;;;;;;19.38;11.43;;;;;;;7.47;57.53;99374.19;5113239;28;20044;-69
2021/03/04 04:38:03;;;;;;;19.70;9.95;;;;;;;7.44;57.66;99374.50;5112928;28;20032;-69
2021/03/04 04:40:30;;;;;;;15.05;9.98;;;;;;;7.32;57.77;99379.19;5113030;28;20050;-69
2021/03/04 04:42:56;;;;;;;15.57;9.82;;;;;;;7.22;57.98;99373.22;5112747;28;20043;-69
2021/03/04 04:45:24;;;;;;;18.63;10.57;;;;;;;7.29;57.96;99376.88;5111266;28;20050;-69
2021/03/04 04:47:51;;;;;;;15.98;10.77;;;;;;;7.35;58.00;99360.47;5112681;28;20127;-69
2021/03/04 04:50:18;;;;;;;16.20;9.38;;;;;;;7.38;57.75;99357.50;5111298;28;20043;-69
2021/03/04 04:52:45;;;;;;;14.60;10.32;;;;;;;7.43;57.50;99360.50;5112734;28;20043;-69
2021/03/04 04:55:12;;;;;;;14.60;9.50;;;;;;;7.49;57.60;99358.22;5112614;28;20046;-69
2021/03/04 04:57:39;;;;;;;20.63;10.82;;;;;;;7.48;57.42;99362.66;5112441;28;20040;-69
2021/03/04 05:00:08;;;;;;;20.35;10.70;;;;;;;7.39;57.56;99358.38;5111215;28;20054;-69
2021/03/04 05:02:36;;;;;;;16.88;10.73;;;;;;;7.32;57.58;99362.59;5112761;28;20388;-69
2021/03/04 05:05:03;;;;;;;17.30;10.57;;;;;;;7.23;57.86;99368.81;5112357;28;20051;-69
2021/03/04 05:07:30;;;;;;;17.63;11.18;;;;;;;7.20;57.83;99367.31;5111181;28;20054;-69
2021/03/04 05:09:57;;;;;;;15.90;10.68;;;;;;;7.19;57.89;99361.22;5112829;28;20052;-69
2021/03/04 05:12:23;;;;;;;21.83;11.70;;;;;;;7.03;57.99;99370.84;5112398;28;20048;-69
2021/03/04 05:14:51;;;;;;;23.92;12.20;;;;;;;6.97;58.45;99366.19;5112121;28;20459;-69
2021/03/04 05:17:18;;;;;;;20.15;11.02;;;;;;;6.88;58.74;99358.25;5112319;28;20088;-69
2021/03/04 05:19:47;;;;;;;18.20;10.73;;;;;;;6.89;58.89;99357.28;5112737;28;20050;-69
2021/03/04 05:22:13;;;;;;;19.38;12.02;;;;;;;6.88;58.94;99360.88;5113308;28;20051;-69
2021/03/04 05:24:41;;;;;;;17.52;11.82;;;;;;;6.94;58.92;99359.47;5113046;28;20424;-69
2021/03/04 05:27:08;;;;;;;16.98;10.45;;;;;;;7.09;58.66;99350.00;5112582;28;20048;-69
2021/03/04 05:29:35;;;;;;;18.20;10.20;;;;;;;7.18;58.65;99346.44;5112079;28;20051;-70
2021/03/04 05:32:02;;;;;;;18.38;11.15;;;;;;;7.27;58.57;99347.31;5112110;28;20493;-69
2021/03/04 05:34:29;;;;;;;17.55;11.10;;;;;;;7.26;58.35;99345.63;5112086;28;20498;-68
2021/03/04 05:36:57;;;;;;;18.73;10.73;;;;;;;7.23;58.42;99353.84;5112165;28;20130;-69
2021/03/04 05:39:25;;;;;;;17.45;11.45;;;;;;;7.27;58.25;99346.47;5112102;28;20390;-69
2021/03/04 05:41:53;;;;;;;47.70;29.95;;;;;;;7.30;58.38;99330.34;5112354;28;20047;-69
2021/03/04 05:44:19;;;;;;;24.55;16.08;;;;;;;7.29;58.03;99328.72;5112229;28;20052;-68
2021/03/04 05:46:47;;;;;;;20.20;11.30;;;;;;;7.19;58.52;99323.59;5112555;28;20462;-69
2021/03/04 05:49:18;;;;;;;16.83;11.13;;;;;;;7.05;58.77;99316.28;5110819;28;20051;-68
2021/03/04 05:51:59;;;;;;;19.73;11.93;;;;;;;7.10;58.82;99322.75;5112324;28;20046;-68
2021/03/04 05:54:28;;;;;;;17.83;10.77;;;;;;;7.15;58.75;99324.91;5112105;28;20040;-70
2021/03/04 05:56:57;;;;;;;18.52;11.32;;;;;;;7.17;58.64;99323.75;5112147;28;20092;-69
2021/03/04 05:59:26;;;;;;;18.52;10.07;;;;;;;7.28;58.72;99324.44;5111825;28;20498;-70
2021/03/04 06:01:54;;;;;;;16.83;11.82;;;;;;;7.34;58.26;99319.38;5112355;28;20082;-70
2021/03/04 06:04:21;;;;;;;20.85;12.43;;;;;;;7.32;58.28;99315.25;5113328;28;20104;-69
2021/03/04 06:06:48;;;;;;;16.40;11.80;;;;;;;7.31;58.25;99311.81;5115695;28;20089;-69
2021/03/04 06:09:15;;;;;;;24.92;15.25;;;;;;;7.31;58.23;99311.81;5115392;28;20493;-71
2021/03/04 06:11:42;;;;;;;20.23;12.38;;;;;;;7.07;58.79;99307.28;5115710;28;20043;-70
2021/03/04 06:14:09;;;;;;;16.25;10.90;;;;;;;6.97;59.18;99303.09;5114277;28;20048;-70
2021/03/04 06:16:36;;;;;;;19.95;11.63;;;;;;;6.90;59.61;99305.56;5114400;28;20418;-70
2021/03/04 06:19:03;;;;;;;18.92;11.68;;;;;;;7.05;59.75;99297.88;5115313;28;20126;-70
2021/03/04 06:21:30;;;;;;;19.83;12.50;;;;;;;7.15;59.19;99298.59;5115512;28;20040;-70
2021/03/04 06:23:58;;;;;;;19.08;11.20;;;;;;;7.22;58.75;99296.97;5115543;28;20039;-70
2021/03/04 06:26:35;;;;;;;19.65;11.77;;;;;;;7.25;58.45;99288.75;5115235;28;20043;-70
2021/03/04 06:29:13;;;;;;;17.23;11.77;;;;;;;7.23;58.41;99289.94;5115182;28;20409;-70
2021/03/04 06:31:40;;;;;;;17.02;10.65;;;;;;;7.21;58.22;99295.31;5115386;28;20482;-70
2021/03/04 06:34:21;;;;;;;19.95;11.60;;;;;;;7.19;58.42;99294.69;5115414;28;20044;-71
2021/03/04 06:36:53;;;;;;;20.88;11.13;;;;;;;7.12;58.55;99297.09;5115444;28;20409;-70
2021/03/04 06:39:20;;;;;;;18.77;11.52;;;;;;;7.11;58.93;99297.28;5115113;28;20043;-70
2021/03/04 06:41:57;;;;;;;18.42;11.38;;;;;;;7.16;58.63;99302.88;5115071;28;20496;-71
2021/03/04 06:44:24;;;;;;;20.67;10.75;;;;;;;7.17;58.52;99297.44;5113813;28;20052;-71
2021/03/04 06:46:51;;;;;;;19.38;12.95;;;;;;;7.28;58.30;99298.16;5115071;28;20039;-70
2021/03/04 06:49:17;;;;;;;19.40;12.18;;;;;;;7.43;58.10;99296.56;5114691;28;20035;-71
2021/03/04 06:51:45;;;;;;;21.27;12.32;;;;;;;7.42;57.85;99313.31;5114998;28;20047;-71
2021/03/04 06:54:22;;;;;;;22.92;11.85;;;;;;;7.32;58.35;99302.94;5114893;28;20040;-72
2021/03/04 06:56:50;;;;;;;19.33;11.77;;;;;;;7.32;58.38;99297.66;5115056;28;20040;-70
2021/03/04 06:59:16;;;;;;;21.05;12.70;;;;;;;7.32;58.54;99294.22;5114766;28;20131;-71
2021/03/04 07:01:44;;;;;;;19.95;12.32;;;;;;;7.43;58.42;99292.13;5115058;28;20043;-70
2021/03/04 07:04:15;;;;;;;19.27;11.77;;;;;;;7.59;58.29;99293.13;5114756;28;20065;-70
2021/03/04 07:06:45;;;;;;;26.58;13.88;;;;;;;7.70;57.91;99292.81;5114773;28;20057;-70
2021/03/04 07:09:13;;;;;;;32.58;16.15;;;;;;;7.69;57.60;99278.84;5114481;28;20047;-71
2021/03/04 07:11:39;;;;;;;27.70;14.38;;;;;;;7.68;58.25;99284.28;5114549;28;20051;-70
2021/03/04 07:14:09;;;;;;;22.58;13.05;;;;;;;7.82;57.80;99299.41;5114091;28;20482;-71
2021/03/04 07:16:37;;;;;;;20.00;13.50;;;;;;;8.00;57.29;99298.44;5114224;28;20043;-70
2021/03/04 07:19:09;;;;;;;19.02;13.18;;;;;;;8.10;57.27;99294.66;5114203;28;20059;-70
2021/03/04 07:21:39;;;;;;;21.45;12.63;;;;;;;8.15;56.71;99281.00;5114258;28;20040;-69
2021/03/04 07:24:07;;;;;;;22.60;12.85;;;;;;;8.24;56.60;99281.81;5114217;28;20092;-69
2021/03/04 07:26:36;;;;;;;24.73;14.40;;;;;;;8.31;56.31;99273.09;5113986;28;20043;-69
2021/03/04 07:29:04;;;;;;;23.60;13.05;;;;;;;8.35;56.16;99289.38;5137889;28;20099;-70
2021/03/04 07:31:32;;;;;;;24.08;12.85;;;;;;;8.33;55.96;99283.47;5134812;28;20036;-69
2021/03/04 07:34:00;;;;;;;22.73;12.52;;;;;;;8.35;55.96;99287.56;5134839;28;20044;-69
2021/03/04 07:36:28;;;;;;;21.40;13.52;;;;;;;8.37;55.83;99282.19;5114664;27;20051;-69
2021/03/04 07:38:57;;;;;;;21.70;13.30;;;;;;;8.34;55.91;99274.59;5114281;28;20122;-69
2021/03/04 07:41:35;;;;;;;21.35;13.40;;;;;;;8.38;55.81;99271.47;5114156;28;20055;-69
2021/03/04 07:44:02;;;;;;;21.20;13.23;;;;;;;8.47;55.81;99264.38;5114098;28;20050;-69
2021/03/04 07:46:30;;;;;;;22.50;13.95;;;;;;;8.51;55.79;99268.31;5113955;28;20043;-69
2021/03/04 07:48:58;;;;;;;25.33;14.07;;;;;;;8.50;55.39;99271.13;5113746;28;20413;-69
2021/03/04 07:51:25;;;;;;;28.13;14.10;;;;;;;8.54;55.51;99272.44;5113963;28;20043;-69
2021/03/04 07:53:53;;;;;;;23.45;14.57;;;;;;;8.58;55.43;99271.13;5113766;28;20070;-69
2021/03/04 07:56:25;;;;;;;20.30;12.68;;;;;;;8.65;55.42;99262.38;5113610;28;20078;-69
2021/03/04 07:58:52;;;;;;;21.35;13.65;;;;;;;8.67;55.21;99265.66;5113590;28;20040;-70
2021/03/04 08:01:19;;;;;;;21.35;13.68;;;;;;;8.79;54.98;99271.38;5113716;28;20039;-69
2021/03/04 08:03:48;;;;;;;19.20;13.40;;;;;;;8.87;54.86;99258.19;5113518;28;20051;-69
2021/03/04 08:06:16;;;;;;;21.80;13.45;;;;;;;8.98;54.73;99254.34;5112123;28;20047;-69
2021/03/04 08:08:45;;;;;;;23.60;13.10;;;;;;;9.04;54.41;99250.19;5113273;28;20040;-69
2021/03/04 08:11:23;;;;;;;23.20;13.48;;;;;;;9.14;54.00;99254.28;5113452;28;20505;-69
2021/03/04 08:13:50;;;;;;;28.75;13.27;;;;;;;9.21;54.33;99249.13;5113324;28;20046;-69
2021/03/04 08:16:18;;;;;;;23.90;14.15;;;;;;;9.38;54.05;99245.38;5113063;28;20039;-69
2021/03/04 08:18:56;;;;;;;21.65;13.82;;;;;;;9.62;53.37;99251.53;5113059;28;20039;-69
2021/03/04 08:21:24;;;;;;;23.45;14.18;;;;;;;9.75;53.11;99246.47;5113192;28;20057;-68
2021/03/04 08:23:52;;;;;;;23.67;13.23;;;;;;;9.94;52.83;99239.91;5113050;28;20051;-69
2021/03/04 08:26:21;;;;;;;20.50;13.20;;;;;;;10.11;52.91;99230.81;5112616;28;20044;-68
2021/03/04 08:28:48;;;;;;;21.42;14.93;;;;;;;10.26;51.99;99230.91;5111687;28;20505;-70
2021/03/04 08:31:16;;;;;;;23.65;13.35;;;;;;;10.23;51.67;99223.28;5113116;28;20035;-70
2021/03/04 08:33:54;;;;;;;22.05;13.25;;;;;;;10.31;51.75;99228.53;5112600;28;20078;-70
2021/03/04 08:36:20;;;;;;;22.00;13.82;;;;;;;10.36;51.64;99222.69;5112806;28;20050;-70
2021/03/04 08:38:49;;;;;;;20.48;12.27;;;;;;;10.45;51.54;99216.34;5112661;28;20044;-70
2021/03/04 08:41:22;;;;;;;23.70;11.98;;;;;;;10.45;50.98;99204.94;5112866;28;20487;-70
2021/03/04 08:43:51;;;;;;;18.08;11.57;;;;;;;10.41;50.99;99210.59;5112890;28;20503;-70
2021/03/04 08:46:18;;;;;;;23.50;12.50;;;;;;;10.52;51.09;99201.38;5113046;28;20048;-71
2021/03/04 08:48:46;;;;;;;20.60;12.10;;;;;;;10.65;50.69;99206.03;5113213;28;20074;-71
2021/03/04 08:51:16;;;;;;;19.92;12.68;;;;;;;10.71;50.28;99200.00;5112744;28;20130;-71
2021/03/04 08:53:47;;;;;;;21.23;11.88;;;;;;;10.73;50.32;99200.63;5112588;28;20040;-71
2021/03/04 08:56:14;;;;;;;18.23;13.32;;;;;;;10.87;50.37;99201.66;5112552;28;20512;-71
2021/03/04 08:58:43;;;;;;;20.50;12.60;;;;;;;10.90;50.15;99199.47;5112337;28;20101;-70
2021/03/04 09:01:11;;;;;;;25.88;14.38;;;;;;;10.95;50.07;99188.31;5112652;28;20048;-70
2021/03/04 09:03:40;;;;;;;22.88;13.23;;;;;;;11.09;49.52;99197.22;5112899;28;20039;-71
2021/03/04 09:06:09;;;;;;;27.00;12.55;;;;;;;11.11;49.37;99200.50;5112414;28;20059;-71
2021/03/04 09:08:38;;;;;;;22.63;11.63;;;;;;;11.18;49.32;99187.34;5110892;28;20100;-71
2021/03/04 09:11:06;;;;;;;20.83;12.60;;;;;;;11.19;49.45;99191.66;5112809;28;20043;-72
2021/03/04 09:13:34;;;;;;;16.73;11.43;;;;;;;11.27;49.29;99179.13;5112530;28;20044;-70
2021/03/04 09:16:06;;;;;;;24.83;13.45;;;;;;;11.40;49.15;99176.59;5112274;28;20118;-70
2021/03/04 09:18:42;;;;;;;22.20;12.30;;;;;;;11.46;48.71;99182.13;5112145;28;20043;-70
2021/03/04 09:21:10;;;;;;;18.75;11.90;;;;;;;11.33;49.28;99170.41;5112230;28;20118;-70
2021/03/04 09:23:37;;;;;;;19.00;11.57;;;;;;;11.32;49.15;99176.72;5112362;28;20072;-70
2021/03/04 09:26:06;;;;;;;21.20;12.73;;;;;;;11.26;48.89;99180.09;5112007;28;20066;-70
2021/03/04 09:28:33;;;;;;;21.60;12.05;;;;;;;11.32;49.32;99173.25;5112048;28;20046;-70
2021/03/04 09:31:08;;;;;;;27.63;12.73;;;;;;;11.45;49.14;99173.38;5112098;28;20035;-70
2021/03/04 09:33:36;;;;;;;20.05;12.25;;;;;;;11.43;48.70;99179.84;5112112;28;20071;-70
2021/03/04 09:36:06;;;;;;;22.63;11.60;;;;;;;11.43;48.90;99178.06;5111872;28;20035;-70
2021/03/04 09:38:34;;;;;;;17.88;11.75;;;;;;;11.46;48.66;99167.06;5113410;28;20530;-70
2021/03/04 09:41:11;;;;;;;25.63;13.00;;;;;;;11.54;48.96;99161.66;5116162;28;20040;-70
2021/03/04 09:43:43;;;;;;;17.85;12.65;;;;;;;11.74;48.59;99151.22;5115954;28;20516;-70
2021/03/04 09:46:13;;;;;;;19.67;12.00;;;;;;;11.80;48.45;99152.31;5115831;28;20054;-70
2021/03/04 09:48:40;;;;;;;22.73;12.45;;;;;;;11.86;48.48;99151.56;5115594;28;20071;-70
2021/03/04 09:51:07;;;;;;;17.60;11.90;;;;;;;12.02;47.94;99142.50;5115792;28;20046;-70
2021/03/04 09:53:45;;;;;;;21.42;11.32;;;;;;;12.14;47.88;99144.41;5115652;28;20043;-70
2021/03/04 09:56:19;;;;;;;21.27;11.63;;;;;;;12.19;47.42;99141.19;5115699;27;20058;-70
2021/03/04 09:58:46;;;;;;;22.25;11.70;;;;;;;12.26;47.51;99134.09;5115530;28;20054;-70
2021/03/04 10:01:13;;;;;;;22.25;12.63;;;;;;;12.35;47.49;99132.09;5115757;28;20047;-70
2021/03/04 10:03:43;;;;;;;19.55;11.55;;;;;;;12.48;47.05;99132.16;5115528;28;20040;-70
2021/03/04 10:06:19;;;;;;;24.27;12.48;;;;;;;12.49;46.97;99127.66;5115434;28;20122;-70
2021/03/04 10:08:52;;;;;;;17.52;12.30;;;;;;;12.60;46.73;99129.78;5115083;28;20036;-70
2021/03/04 10:11:25;;;;;;;33.83;18.15;;;;;;;12.57;46.64;99135.47;5115519;27;20108;-70
2021/03/04 10:13:52;;;;;;;21.58;12.52;;;;;;;12.56;46.76;99132.00;5115138;28;20121;-69
2021/03/04 10:16:18;;;;;;;17.20;12.32;;;;;;;12.66;46.86;99125.53;5115221;28;20059;-70
2021/03/04 10:18:47;;;;;;;20.75;12.02;;;;;;;12.75;46.42;99141.06;5115094;28;20149;-70
2021/03/04 10:21:15;;;;;;;24.25;11.73;;;;;;;12.91;46.30;99134.59;5115107;28;20047;-70
2021/03/04 10:23:46;;;;;;;18.73;11.93;;;;;;;13.02;46.00;99138.47;5115156;28;20043;-70
2021/03/04 10:26:12;;;;;;;17.83;11.75;;;;;;;13.13;45.93;99136.06;5114893;28;20039;-70
2021/03/04 10:28:40;;;;;;;27.27;15.93;;;;;;;13.25;45.54;99133.69;5114815;28;20036;-70
2021/03/04 10:31:07;;;;;;;24.10;12.55;;;;;;;13.35;45.21;99125.34;5115090;28;20557;-70
2021/03/04 10:33:34;;;;;;;25.52;11.73;;;;;;;13.42;44.94;99125.31;5115158;28;20071;-70
2021/03/04 10:36:01;;;;;;;22.58;13.75;;;;;;;13.46;45.06;99129.22;5114864;28;20066;-70
2021/03/04 10:38:28;;;;;;;21.10;11.77;;;;;;;13.50;44.78;99127.78;5114623;28;20040;-70
2021/03/04 10:40:54;;;;;;;20.70;13.27;;;;;;;13.65;44.80;99124.94;5114904;28;20561;-70
2021/03/04 10:43:21;;;;;;;22.60;12.85;;;;;;;13.76;44.48;99119.00;5114855;28;20081;-70
2021/03/04 10:45:49;;;;;;;19.38;11.40;;;;;;;13.84;44.12;99122.28;5114512;28;20126;-71
2021/03/04 10:48:16;;;;;;;20.17;12.77;;;;;;;13.79;44.38;99121.25;5114495;28;20044;-71
2021/03/04 10:50:43;;;;;;;22.30;12.85;;;;;;;13.88;44.14;99120.03;5114561;28;20409;-71
2021/03/04 10:53:10;;;;;;;21.95;13.15;;;;;;;13.96;43.83;99116.31;5114682;28;20513;-71
2021/03/04 10:55:40;;;;;;;28.67;14.13;;;;;;;13.86;44.29;99114.91;5113160;28;20054;-71
2021/03/04 10:58:06;;;;;;;22.65;12.80;;;;;;;13.86;43.97;99114.09;5114354;28;20047;-71
2021/03/04 11:00:33;;;;;;;23.30;12.35;;;;;;;13.83;44.21;99115.31;5114366;28;20039;-71
2021/03/04 11:03:01;;;;;;;22.73;12.48;;;;;;;13.90;44.19;99107.34;5114432;28;20065;-71
2021/03/04 11:05:28;;;;;;;21.48;13.07;;;;;;;13.99;44.07;99103.44;5114296;28;20447;-71
2021/03/04 11:07:55;;;;;;;20.58;12.15;;;;;;;13.88;43.58;99112.88;5113994;28;20122;-70
2021/03/04 11:10:22;;;;;;;19.35;12.27;;;;;;;13.79;44.12;99108.78;5114429;27;20416;-71
2021/03/04 11:12:50;;;;;;;18.73;12.05;;;;;;;13.80;44.19;99105.13;5114336;28;20075;-71
2021/03/04 11:15:18;;;;;;;19.42;13.30;;;;;;;13.79;44.26;99103.47;5114258;28;20057;-70
2021/03/04 11:17:48;;;;;;;21.60;12.88;;;;;;;13.77;44.10;99107.34;5114256;28;20120;-71
2021/03/04 11:20:16;;;;;;;26.98;14.05;;;;;;;13.69;44.13;99108.38;5122905;28;20023;-72
2021/03/04 11:22:43;;;;;;;29.45;15.30;;;;;;;13.79;44.26;99106.13;5140049;28;20047;-71
2021/03/04 11:25:11;;;;;;;32.53;18.35;;;;;;;13.73;44.28;99100.81;5138409;28;20063;-70
2021/03/04 11:27:38;;;;;;;19.90;14.23;;;;;;;13.52;44.64;99105.31;5114667;28;20093;-71
2021/03/04 11:30:06;;;;;;;26.48;14.60;;;;;;;13.37;45.50;99107.34;5114569;28;20043;-70
2021/03/04 11:32:33;;;;;;;28.63;15.32;;;;;;;13.31;45.61;99114.31;5114147;27;20429;-70
2021/03/04 11:35:00;;;;;;;24.35;13.65;;;;;;;13.41;45.33;99110.41;5113908;28;20047;-70